CW4778 Auckland NZ current weather conditions

sailwx.info

Wind from 069 at 8 knots gusting 18

Air temperature 13.9° C
Dewpoint 8.5° C

Last reported at 2014-Aug-28 02:48 UTC.
Time now 2014-Aug-28 03:21 UTC

Location: S 36°52' E 174°44'.
View on Google Maps.

See reports from other nearby stations

  
Tides and Currents Weather Stations Pressure Air Temp Water Temp Dewpoint Dewpoint Depression Visibility Wind Speed Wind Dir Waves Ship Positions
date/time (UTC)wind fromknots sea level pressurealtimeterstation pressurevisibilityair tempwater tempwave heightnotes
2014-Aug-28 02:48 069 8 gusting 18 13.9
2014-Aug-28 02:38 083 11 gusting 19 13.9
2014-Aug-28 02:28 087 8 gusting 18 14.4
2014-Aug-28 02:18 063 6 gusting 18 14.4
2014-Aug-28 02:08 060 9 gusting 22 14.4
2014-Aug-28 01:58 068 6 gusting 19 14.4
2014-Aug-28 01:48 069 8 gusting 19 14.4
2014-Aug-28 01:38 080 9 gusting 18 14.4
2014-Aug-28 01:28 102 10 gusting 17 14.4
2014-Aug-28 01:18 093 7 gusting 13 14.4
2014-Aug-28 01:08 064 10 gusting 18 14.4
2014-Aug-28 00:58 074 7 gusting 20 15.0
2014-Aug-28 00:48 073 6 gusting 13 15.0
2014-Aug-28 00:38 043 7 gusting 13 14.4
2014-Aug-28 00:28 057 5 gusting 14 14.4
2014-Aug-28 00:18 084 7 gusting 14 14.4
2014-Aug-28 00:08 092 6 gusting 20 14.4
2014-Aug-27 23:58 082 9 gusting 22 14.4
2014-Aug-27 23:48 104 7 gusting 19 14.4
2014-Aug-27 23:38 074 7 gusting 20 14.4
2014-Aug-27 23:28 045 8 gusting 19 13.9
2014-Aug-27 23:18 059 11 gusting 19 14.4
2014-Aug-27 23:08 099 10 gusting 27 13.9
2014-Aug-27 22:58 054 9 gusting 19 14.4
2014-Aug-27 22:48 085 11 gusting 22 15.0
2014-Aug-27 22:38 056 3 gusting 17 14.4
2014-Aug-27 22:28 077 8 gusting 22 13.9
2014-Aug-27 22:18 068 7 gusting 19 15.0
2014-Aug-27 22:08 112 6 gusting 15 13.9
2014-Aug-27 21:58 083 7 gusting 22 12.8
2014-Aug-27 21:48 074 6 gusting 13 12.8
2014-Aug-27 21:38 082 6 gusting 13 12.8
2014-Aug-27 21:28 111 4 gusting 12 12.8
2014-Aug-27 21:18 089 6 gusting 15 12.2
2014-Aug-27 21:08 065 7 gusting 12 12.2
2014-Aug-27 20:58 078 6 gusting 18 12.2
2014-Aug-27 20:48 092 6 gusting 13 12.2
2014-Aug-27 20:38 092 4 gusting 14 12.2
2014-Aug-27 20:28 105 10 gusting 17 12.2
2014-Aug-27 20:18 093 2 gusting 10 12.2
2014-Aug-27 20:08 103 10 gusting 18 11.7
2014-Aug-27 19:58 092 4 gusting 13 11.7
2014-Aug-27 19:48 106 6 gusting 12 11.7
2014-Aug-27 19:38 046 5 gusting 10 11.7
2014-Aug-27 19:28 070 6 gusting 12 11.7
2014-Aug-27 19:18 089 6 gusting 12 11.7
2014-Aug-27 19:08 083 6 gusting 12 11.7
2014-Aug-27 18:58 094 6 gusting 12 11.7
2014-Aug-27 18:48 110 6 gusting 10 11.1
2014-Aug-27 18:38 087 3 gusting 10 11.7
2014-Aug-27 18:28 101 6 gusting 12 11.7
2014-Aug-27 18:18 103 5 gusting 10 11.1
2014-Aug-27 18:08 095 4 gusting 7 11.1
2014-Aug-27 17:58 095 6 gusting 13 11.1
2014-Aug-27 17:48 116 2 gusting 7 10.0
2014-Aug-27 17:38 130 0 gusting 4 9.4
2014-Aug-27 17:28 163 1 gusting 5 9.4
2014-Aug-27 17:18 171 1 gusting 6 9.4
2014-Aug-27 17:08 171 2 gusting 5 10.0
2014-Aug-27 16:58 103 5 gusting 8 11.1
2014-Aug-27 16:48 101 2 gusting 7 10.6
2014-Aug-27 16:38 084 2 gusting 7 10.6
2014-Aug-27 16:28 130 9.4
2014-Aug-27 16:18 165 9.4
2014-Aug-27 16:08 121 10.0
2014-Aug-27 15:58 111 0 gusting 5 10.0
2014-Aug-27 15:48 108 0 gusting 2 10.0
2014-Aug-27 15:38 103 2 gusting 6 10.0
2014-Aug-27 15:28 109 0 gusting 6 10.0
2014-Aug-27 15:18 113 1 gusting 6 10.0
2014-Aug-27 15:08 047 2 gusting 6 10.0
2014-Aug-27 14:58 098 2 gusting 7 10.0
2014-Aug-27 14:48 067 3 gusting 11 10.6
2014-Aug-27 14:38 091 3 gusting 13 10.6
2014-Aug-27 14:28 070 0 gusting 7 11.1
2014-Aug-27 14:18 070 2 gusting 7 11.1
2014-Aug-27 14:08 096 2 gusting 11 11.1
2014-Aug-27 13:58 104 4 gusting 7 11.1
2014-Aug-27 13:48 075 4 gusting 8 10.6
2014-Aug-27 13:38 064 4 gusting 12 10.6
2014-Aug-27 13:28 074 2 gusting 7 10.6
2014-Aug-27 13:18 074 4 gusting 7 10.6
2014-Aug-27 13:08 092 4 gusting 12 10.6
2014-Aug-27 12:58 085 1 gusting 10 10.6
2014-Aug-27 12:48 091 2 gusting 8 10.6
2014-Aug-27 12:38 060 6 gusting 13 10.6
2014-Aug-27 12:28 119 0 gusting 2 10.0
2014-Aug-27 12:18 099 1 gusting 6 10.6
2014-Aug-27 12:08 082 0 gusting 6 10.6
2014-Aug-27 11:58 077 3 gusting 7 10.6
2014-Aug-27 11:48 121 3 gusting 6 11.1
2014-Aug-27 11:38 104 1 gusting 4 11.1
2014-Aug-27 11:28 115 1 gusting 6 11.1
2014-Aug-27 11:18 115 0 gusting 6 11.1
2014-Aug-27 11:08 108 0 gusting 5 10.6
2014-Aug-27 10:58 121 2 gusting 7 11.1
2014-Aug-27 10:48 103 1 gusting 6 11.1
2014-Aug-27 10:38 110 2 gusting 7 11.1
2014-Aug-27 10:28 093 4 gusting 7 11.1
2014-Aug-27 10:18 104 2 gusting 6 11.1
2014-Aug-27 10:08 094 4 gusting 8 11.1
2014-Aug-27 09:58 102 1 gusting 6 11.1
2014-Aug-27 09:48 074 5 gusting 8 11.1
2014-Aug-27 09:38 077 3 gusting 13 11.1
2014-Aug-27 09:28 091 3 gusting 10 11.1
2014-Aug-27 09:18 069 2 gusting 11 11.1
2014-Aug-27 09:08 052 0 gusting 8 11.1
2014-Aug-27 08:58 099 2 gusting 6 10.6
2014-Aug-27 08:48 132 0 gusting 7 10.6
2014-Aug-27 08:38 109 1 gusting 7 10.6
2014-Aug-27 08:28 104 0 gusting 7 11.1
2014-Aug-27 08:18 086 2 gusting 7 11.1
2014-Aug-27 08:08 105 4 gusting 7 11.1
2014-Aug-27 07:58 103 4 gusting 10 11.1
2014-Aug-27 07:48 084 1 gusting 6 11.1
2014-Aug-27 07:38 096 3 gusting 7 11.1
2014-Aug-27 07:28 101 4 gusting 8 11.1
2014-Aug-27 07:18 099 1 gusting 7 11.1
2014-Aug-27 07:08 107 4 gusting 10 11.1
2014-Aug-27 06:58 089 4 gusting 13 11.1
2014-Aug-27 06:48 102 2 gusting 7 11.1
2014-Aug-27 06:38 082 4 gusting 13 11.1
2014-Aug-27 06:28 087 6 gusting 11 11.1
2014-Aug-27 06:18 093 4 gusting 13 11.1
2014-Aug-27 06:08 110 3 gusting 11 11.1
2014-Aug-27 05:58 096 6 gusting 13 11.1
2014-Aug-27 05:48 057 4 gusting 12 11.1
2014-Aug-27 05:38 088 2 gusting 12 11.1
2014-Aug-27 05:28 110 5 gusting 10 11.7
2014-Aug-27 05:18 100 6 gusting 13 11.7
2014-Aug-27 05:08 087 6 gusting 13 11.7
2014-Aug-27 04:58 080 5 gusting 13 11.7
2014-Aug-27 04:38 059 6 gusting 13 11.7
2014-Aug-27 04:28 094 6 gusting 12 11.7
2014-Aug-27 04:18 089 6 gusting 11 11.7
2014-Aug-27 04:08 043 1 gusting 7 11.7
2014-Aug-27 03:58 058 2 gusting 7 11.7
2014-Aug-27 03:48 081 6 gusting 10 11.7
2014-Aug-27 03:38 067 2 gusting 8 11.7
2014-Aug-27 03:28 078 7 gusting 14 11.7
2014-Aug-27 03:18 104 4 gusting 11 11.7
2014-Aug-27 03:08 065 1 gusting 10 11.7
2014-Aug-27 02:58 061 1 gusting 10 11.7
2014-Aug-27 02:48 062 4 gusting 8 11.7
2014-Aug-27 02:38 080 2 gusting 8 11.7
2014-Aug-27 02:28 065 4 gusting 12 11.7
2014-Aug-27 02:18 101 4 gusting 11 12.2
2014-Aug-27 02:08 050 3 gusting 10 12.8
2014-Aug-27 01:58 060 6 gusting 12 12.2
2014-Aug-27 01:48 089 3 gusting 13 12.8
2014-Aug-27 01:38 097 7 gusting 13 12.8
2014-Aug-27 01:28 109 4 gusting 11 12.8
2014-Aug-27 01:18 107 8 gusting 13 12.2
2014-Aug-27 01:08 094 5 gusting 18 12.2
2014-Aug-27 00:58 104 7 gusting 14 12.8
2014-Aug-27 00:48 076 6 gusting 14 12.2
2014-Aug-27 00:38 107 5 gusting 17 12.2
2014-Aug-27 00:28 130 5 gusting 14 12.8
2014-Aug-27 00:18 096 6 gusting 17 12.8
2014-Aug-27 00:08 092 8 gusting 15 13.3
2014-Aug-26 23:58 097 9 gusting 22 13.3
2014-Aug-26 23:48 057 6 gusting 13 13.9
2014-Aug-26 23:38 076 5 gusting 13 14.4
2014-Aug-26 23:28 107 10 gusting 14 15.0
2014-Aug-26 23:18 069 5 gusting 11 15.6
2014-Aug-26 23:08 030 3 gusting 10 15.6
2014-Aug-26 22:58 101 4 gusting 10 14.4
2014-Aug-26 22:48 104 6 gusting 10 15.0
2014-Aug-26 22:38 075 2 gusting 6 14.4
2014-Aug-26 22:28 088 4 gusting 7 13.9
2014-Aug-26 22:18 075 4 gusting 14 15.0
2014-Aug-26 22:08 097 6 gusting 10 14.4
2014-Aug-26 21:58 111 5 gusting 8 15.0
2014-Aug-26 21:48 104 1 gusting 7 15.0
2014-Aug-26 21:38 062 4 gusting 8 14.4
2014-Aug-26 21:28 099 4 gusting 8 14.4
2014-Aug-26 21:18 096 3 gusting 8 14.4
2014-Aug-26 21:08 090 5 gusting 7 13.9
2014-Aug-26 20:58 089 12.2
2014-Aug-26 20:48 125 11.7
2014-Aug-26 20:38 217 11.1
2014-Aug-26 20:28 212 10.6
2014-Aug-26 20:18 202 10.0
2014-Aug-26 20:08 203 10.0
2014-Aug-26 19:58 197 0 gusting 4 9.4
2014-Aug-26 19:48 189 1 gusting 6 9.4
2014-Aug-26 19:38 189 1 gusting 5 9.4
2014-Aug-26 19:28 190 0 gusting 4 9.4
2014-Aug-26 19:18 191 9.4
2014-Aug-26 19:08 193 0 gusting 4 9.4
2014-Aug-26 18:58 113 9.4
2014-Aug-26 18:48 107 9.4
2014-Aug-26 18:38 107 9.4
2014-Aug-26 18:28 115 9.4
2014-Aug-26 18:18 115 9.4
2014-Aug-26 18:08 109 9.4
2014-Aug-26 17:58 107 9.4
2014-Aug-26 17:48 107 9.4
2014-Aug-26 17:38 109 9.4
2014-Aug-26 17:28 106 0 gusting 2 9.4
2014-Aug-26 17:18 098 0 gusting 5 9.4
2014-Aug-26 17:08 108 9.4
2014-Aug-26 16:58 101 0 gusting 2 9.4
2014-Aug-26 16:48 132 0 gusting 1 9.4
2014-Aug-26 16:38 121 0 gusting 1 9.4
2014-Aug-26 16:28 119 0 gusting 1 9.4
2014-Aug-26 16:18 100 9.4
2014-Aug-26 16:08 100 9.4
2014-Aug-26 15:58 101 9.4
2014-Aug-26 15:48 100 9.4
2014-Aug-26 15:38 100 9.4
2014-Aug-26 15:28 101 9.4
2014-Aug-26 15:18 100 9.4
2014-Aug-26 15:08 100 9.4
2014-Aug-26 14:58 113 9.4
2014-Aug-26 14:48 111 9.4
2014-Aug-26 14:38 100 9.4
2014-Aug-26 14:28 100 9.4
2014-Aug-26 14:18 100 0 gusting 2 10.0
2014-Aug-26 14:08 102 0 gusting 2 9.4
2014-Aug-26 13:58 069 9.4
2014-Aug-26 13:48 068 10.0
2014-Aug-26 13:38 067 0 gusting 4 10.0
2014-Aug-26 13:28 096 10.0
2014-Aug-26 13:18 099 10.0
2014-Aug-26 13:08 096 0 gusting 2 10.0
2014-Aug-26 12:58 102 10.0
2014-Aug-26 12:48 104 10.0
2014-Aug-26 12:38 095 0 gusting 5 10.0
2014-Aug-26 12:28 084 10.0
2014-Aug-26 12:18 096 9.4
2014-Aug-26 12:08 091 9.4
2014-Aug-26 11:58 115 9.4
2014-Aug-26 11:48 117 9.4
2014-Aug-26 11:38 110 0 gusting 1 9.4
2014-Aug-26 11:28 104 0 gusting 2 9.4
2014-Aug-26 11:18 107 0 gusting 2 9.4
2014-Aug-26 11:08 093 8.9
2014-Aug-26 10:58 128 8.3
2014-Aug-26 10:48 110 8.3
2014-Aug-26 10:38 110 8.9
2014-Aug-26 10:28 111 9.4
2014-Aug-26 10:18 099 9.4
2014-Aug-26 10:08 101 10.0
2014-Aug-26 09:58 100 0 gusting 2 9.4
2014-Aug-26 09:48 105 10.0
2014-Aug-26 09:38 091 0 gusting 5 9.4
2014-Aug-26 09:28 062 9.4
2014-Aug-26 09:18 057 9.4
2014-Aug-26 09:08 052 9.4
2014-Aug-26 08:58 048 10.0
2014-Aug-26 08:48 073 0 gusting 5 10.0
2014-Aug-26 08:38 059 0 gusting 7 10.6
2014-Aug-26 08:28 050 1 gusting 7 10.6
2014-Aug-26 08:18 084 5 gusting 7 10.6
2014-Aug-26 08:08 057 1 gusting 6 10.6
2014-Aug-26 07:58 070 2 gusting 7 10.6
2014-Aug-26 07:48 069 1 gusting 6 10.6
2014-Aug-26 07:38 100 0 gusting 5 10.6
2014-Aug-26 07:28 092 2 gusting 7 10.6
2014-Aug-26 07:18 056 4 gusting 11 10.6
2014-Aug-26 07:08 045 10.6
2014-Aug-26 06:58 071 2 gusting 7 11.1
2014-Aug-26 06:48 052 6 gusting 11 11.1
2014-Aug-26 06:38 051 5 gusting 12 11.1
2014-Aug-26 06:28 021 1 gusting 7 11.1
2014-Aug-26 06:18 040 3 gusting 11 11.7
2014-Aug-26 06:08 042 2 gusting 7 11.7
2014-Aug-26 05:58 038 2 gusting 7 11.7
2014-Aug-26 05:48 030 1 gusting 8 11.7
2014-Aug-26 05:38 045 3 gusting 7 11.7
2014-Aug-26 05:28 029 4 gusting 7 12.2
2014-Aug-26 05:18 052 1 gusting 7 12.2
2014-Aug-26 05:08 049 0 gusting 7 12.2
2014-Aug-26 04:58 061 1 gusting 7 12.2
2014-Aug-26 04:48 074 4 gusting 8 12.8
2014-Aug-26 04:38 088 2 gusting 8 12.2
2014-Aug-26 04:28 063 4 gusting 7 12.2
2014-Aug-26 04:18 059 3 gusting 7 12.8
2014-Aug-26 04:08 070 2 gusting 8 12.8
2014-Aug-26 03:58 070 0 gusting 7 13.3
2014-Aug-26 03:48 068 5 gusting 10 13.3
2014-Aug-26 03:38 049 6 gusting 12 13.9
2014-Aug-26 03:28 086 4 gusting 7 13.9
2014-Aug-26 03:18 058 3 gusting 7 13.9
2014-Aug-26 03:08 047 4 gusting 8 13.3